createdAt,value
2023-05-08T00:01:56.137Z,96484.10
2023-05-08T00:04:24.603Z,96486.66
2023-05-08T00:06:53.220Z,96486.97
2023-05-08T00:09:21.629Z,96488.91
2023-05-08T00:11:49.984Z,96489.42
2023-05-08T00:14:18.649Z,96485.59
2023-05-08T00:16:47.022Z,96480.58
2023-05-08T00:19:15.452Z,96482.15
2023-05-08T00:21:43.699Z,96474.11
2023-05-08T00:24:11.989Z,96466.96
2023-05-08T00:26:42.072Z,96458.26
2023-05-08T00:29:11.487Z,96456.72
2023-05-08T00:31:39.846Z,96460.58
2023-05-08T00:34:08.337Z,96461.03
2023-05-08T00:36:36.649Z,96462.08
2023-05-08T00:39:05.119Z,96463.52
2023-05-08T00:41:33.456Z,96470.27
2023-05-08T00:44:02.370Z,96477.65
2023-05-08T00:46:31.299Z,96481.38
2023-05-08T00:49:00.456Z,96484.27
2023-05-08T00:51:29.474Z,96482.11
2023-05-08T00:53:59.622Z,96485.59
2023-05-08T00:56:29.957Z,96488.77
2023-05-08T00:58:59.045Z,96488.45
2023-05-08T01:01:27.703Z,96491.02
2023-05-08T01:03:56.267Z,96487.85
2023-05-08T01:06:24.789Z,96488.59
2023-05-08T01:08:53.194Z,96487.55
2023-05-08T01:11:31.456Z,96490.77
2023-05-08T01:14:23.217Z,96490.16
2023-05-08T01:17:36.576Z,96488.69
2023-05-08T01:20:23.626Z,96488.21
2023-05-08T01:23:08.851Z,96487.93
2023-05-08T01:25:44.191Z,96480.04
2023-05-08T01:28:12.813Z,96477.84
2023-05-08T01:30:54.253Z,96478.34
2023-05-08T01:34:10.666Z,96484.81
2023-05-08T01:36:52.034Z,96485.98
2023-05-08T01:39:33.546Z,96483.09
2023-05-08T01:42:34.478Z,96482.24
2023-05-08T01:45:11.024Z,96483.39
2023-05-08T01:47:40.125Z,96481.42
2023-05-08T01:50:25.920Z,96481.58
2023-05-08T01:53:00.706Z,96482.92
2023-05-08T01:55:36.474Z,96483.89
2023-05-08T01:58:09.094Z,96478.62
2023-05-08T02:00:40.976Z,96478.98
2023-05-08T02:03:11.182Z,96478.97
2023-05-08T02:05:42.274Z,96478.56
2023-05-08T02:08:14.270Z,96478.36
2023-05-08T02:10:43.639Z,96474.70
2023-05-08T02:13:19.313Z,96478.63
2023-05-08T02:15:49.780Z,96483.39
2023-05-08T02:18:22.345Z,96482.89
2023-05-08T02:20:52.582Z,96484.58
2023-05-08T02:23:23.607Z,96481.61
2023-05-08T02:25:53.372Z,96479.09
2023-05-08T02:28:24.126Z,96476.64
2023-05-08T02:30:52.896Z,96475.81
2023-05-08T02:33:22.165Z,96476.64
2023-05-08T02:35:52.011Z,96475.67
2023-05-08T02:38:21.927Z,96475.81
2023-05-08T02:40:55.852Z,96473.75
2023-05-08T02:43:24.582Z,96480.48
2023-05-08T02:45:57.448Z,96481.36
2023-05-08T02:48:59.120Z,96482.68
2023-05-08T02:51:55.783Z,96479.16
2023-05-08T02:54:44.538Z,96478.80
2023-05-08T02:57:19.457Z,96476.83
2023-05-08T02:59:57.723Z,96476.75
2023-05-08T03:02:35.908Z,96474.80
2023-05-08T03:05:14.648Z,96472.27
2023-05-08T03:07:45.464Z,96468.61
2023-05-08T03:10:16.886Z,96469.15
2023-05-08T03:12:52.293Z,96469.33
2023-05-08T03:15:24.170Z,96471.02
2023-05-08T03:17:59.160Z,96473.86
2023-05-08T03:20:33.796Z,96474.77
2023-05-08T03:23:03.465Z,96476.41
2023-05-08T03:25:34.554Z,96481.80
2023-05-08T03:28:05.349Z,96487.45
2023-05-08T03:30:36.744Z,96487.84
2023-05-08T03:33:10.036Z,96488.82
2023-05-08T03:35:40.043Z,96489.49
2023-05-08T03:38:09.902Z,96489.98
2023-05-08T03:40:42.840Z,96491.13
2023-05-08T03:43:12.267Z,96494.09
2023-05-08T03:45:41.346Z,96494.92
2023-05-08T03:48:11.088Z,96493.00
2023-05-08T03:50:39.499Z,96492.24
2023-05-08T03:53:10.665Z,96492.61
2023-05-08T03:55:39.549Z,96500.36
2023-05-08T03:58:21.750Z,96501.17
2023-05-08T04:01:06.491Z,96496.48
2023-05-08T04:04:01.303Z,96494.32
2023-05-08T04:06:57.139Z,96504.48
2023-05-08T04:10:01.062Z,96504.67
2023-05-08T04:12:47.275Z,96506.06
2023-05-08T04:15:38.557Z,96509.40
2023-05-08T04:18:10.894Z,96508.99
2023-05-08T04:20:41.797Z,96512.16
2023-05-08T04:23:14.439Z,96514.30
2023-05-08T04:25:43.960Z,96510.05
2023-05-08T04:28:12.698Z,96511.66
2023-05-08T04:30:41.598Z,96509.58
2023-05-08T04:33:11.416Z,96502.98
2023-05-08T04:35:39.774Z,96503.29
2023-05-08T04:38:08.378Z,96503.66
2023-05-08T04:40:36.905Z,96508.71
2023-05-08T04:43:06.140Z,96513.08
2023-05-08T04:45:34.540Z,96519.33
2023-05-08T04:48:02.931Z,96524.37
2023-05-08T04:50:32.221Z,96525.20
2023-05-08T04:53:00.775Z,96525.19
2023-05-08T04:55:29.342Z,96525.38
2023-05-08T04:57:57.717Z,96526.55
2023-05-08T05:00:26.233Z,96528.65
2023-05-08T05:02:54.847Z,96529.88
2023-05-08T05:05:23.407Z,96526.71
2023-05-08T05:07:51.749Z,96530.48
2023-05-08T05:10:41.147Z,96529.63
2023-05-08T05:13:09.706Z,96534.06
2023-05-08T05:15:38.178Z,96525.00
2023-05-08T05:18:06.650Z,96529.86
2023-05-08T05:20:35.083Z,96530.40
2023-05-08T05:23:04.035Z,96531.61
2023-05-08T05:25:32.464Z,96531.35
2023-05-08T05:28:01.660Z,96537.69
2023-05-08T05:30:30.604Z,96539.16
2023-05-08T05:32:59.440Z,96540.63
2023-05-08T05:35:27.969Z,96537.86
2023-05-08T05:37:56.780Z,96537.70
2023-05-08T05:40:25.912Z,96535.92
2023-05-08T05:42:54.499Z,96538.09
2023-05-08T05:45:22.943Z,96533.93
2023-05-08T05:47:54.410Z,96534.63
2023-05-08T05:50:23.651Z,96533.49
2023-05-08T05:52:52.088Z,96533.48
2023-05-08T05:55:22.240Z,96538.96
2023-05-08T05:57:50.892Z,96537.13
2023-05-08T06:00:21.537Z,96540.02
2023-05-08T06:02:52.069Z,96538.84
2023-05-08T06:05:21.124Z,96537.45
2023-05-08T06:07:49.800Z,96538.28
2023-05-08T06:10:18.244Z,96536.48
2023-05-08T06:12:46.627Z,96535.58
2023-05-08T06:15:15.415Z,96535.67
2023-05-08T06:17:44.906Z,96538.73
2023-05-08T06:20:14.163Z,96540.39
2023-05-08T06:22:42.601Z,96542.32
2023-05-08T06:25:11.373Z,96547.57
2023-05-08T06:28:00.069Z,96546.05
2023-05-08T06:30:28.539Z,96545.89
2023-05-08T06:32:56.947Z,96546.36
2023-05-08T06:35:25.495Z,96546.38
2023-05-08T06:37:53.825Z,96550.31
2023-05-08T06:40:23.728Z,96550.94
2023-05-08T06:42:52.122Z,96549.66
2023-05-08T06:45:20.561Z,96553.98
2023-05-08T06:47:48.879Z,96553.16
2023-05-08T06:50:17.260Z,96558.02
2023-05-08T06:52:45.644Z,96561.98
2023-05-08T06:55:14.433Z,96559.27
2023-05-08T06:57:43.070Z,96563.70
2023-05-08T07:00:12.163Z,96562.36
2023-05-08T07:02:40.480Z,96560.20
2023-05-08T07:05:09.504Z,96562.14
2023-05-08T07:07:38.012Z,96563.71
2023-05-08T07:10:07.932Z,96565.38
2023-05-08T07:12:54.613Z,96562.52
2023-05-08T07:15:26.606Z,96561.88
2023-05-08T07:17:56.078Z,96563.31
2023-05-08T07:20:25.116Z,96567.42
2023-05-08T07:22:53.422Z,96566.29
2023-05-08T07:25:21.889Z,96564.54
2023-05-08T07:27:50.247Z,96563.33
2023-05-08T07:30:18.581Z,96563.14
2023-05-08T07:32:47.034Z,96570.25
2023-05-08T07:35:15.902Z,96567.98
2023-05-08T07:37:44.671Z,96566.14
2023-05-08T07:40:13.112Z,96570.67
2023-05-08T07:42:45.450Z,96570.73
2023-05-08T07:45:14.511Z,96572.29
2023-05-08T07:47:51.610Z,96577.02
2023-05-08T07:50:36.629Z,96576.22
2023-05-08T07:53:05.029Z,96572.32
2023-05-08T07:55:33.338Z,96573.61
2023-05-08T07:58:01.724Z,96574.04
2023-05-08T08:00:30.099Z,96574.51
2023-05-08T08:02:58.636Z,96575.83
2023-05-08T08:05:27.192Z,96572.78
2023-05-08T08:07:55.515Z,96575.23
2023-05-08T08:10:23.995Z,96579.02
2023-05-08T08:12:52.328Z,96575.84
2023-05-08T08:15:20.898Z,96574.52
2023-05-08T08:17:49.304Z,96571.66
2023-05-08T08:20:17.581Z,96571.23
2023-05-08T08:22:46.147Z,96574.08
2023-05-08T08:25:14.880Z,96577.87
2023-05-08T08:27:43.418Z,96580.27
2023-05-08T08:30:16.751Z,96580.27
2023-05-08T08:32:46.873Z,96582.91
2023-05-08T08:35:16.035Z,96582.87
2023-05-08T08:37:45.368Z,96581.48
2023-05-08T08:40:13.876Z,96586.79
2023-05-08T08:42:42.302Z,96587.80
2023-05-08T08:45:11.540Z,96587.55
2023-05-08T08:47:44.425Z,96589.64
2023-05-08T08:50:15.803Z,96593.61
2023-05-08T08:53:21.717Z,96596.49
2023-05-08T08:55:53.866Z,96594.43
2023-05-08T08:58:33.282Z,96596.79
2023-05-08T09:01:04.108Z,96597.80
2023-05-08T09:03:32.901Z,96597.28
2023-05-08T09:06:01.682Z,96598.88
2023-05-08T09:08:30.215Z,96598.27
2023-05-08T09:10:58.799Z,96599.98
2023-05-08T09:13:27.226Z,96599.28
2023-05-08T09:15:57.893Z,96604.96
2023-05-08T09:18:26.547Z,96605.33
2023-05-08T09:20:55.313Z,96609.21
2023-05-08T09:23:23.631Z,96606.63
2023-05-08T09:25:52.041Z,96610.38
2023-05-08T09:28:20.577Z,96612.00
2023-05-08T09:30:59.370Z,96611.18
2023-05-08T09:33:29.641Z,96612.64
2023-05-08T09:35:58.385Z,96609.64
2023-05-08T09:38:42.458Z,96607.49
2023-05-08T09:41:13.500Z,96603.73
2023-05-08T09:43:43.527Z,96596.89
2023-05-08T09:46:25.154Z,96601.63
2023-05-08T09:48:58.805Z,96601.60
2023-05-08T09:51:29.826Z,96601.58
2023-05-08T09:54:00.582Z,96600.56
2023-05-08T09:56:33.688Z,96602.63
2023-05-08T09:59:22.064Z,96599.31
2023-05-08T10:01:51.095Z,96597.02
2023-05-08T10:04:32.303Z,96597.50
2023-05-08T10:07:01.136Z,96598.86
2023-05-08T10:09:42.424Z,96597.18
2023-05-08T10:12:15.771Z,96598.82
2023-05-08T10:14:46.525Z,96601.70
2023-05-08T10:17:21.820Z,96601.75
2023-05-08T10:19:55.822Z,96595.92
2023-05-08T10:22:25.679Z,96597.13
2023-05-08T10:24:58.783Z,96593.46
2023-05-08T10:27:55.698Z,96589.73
2023-05-08T10:30:27.755Z,96588.90
2023-05-08T10:32:59.398Z,96589.67
2023-05-08T10:35:28.172Z,96589.27
2023-05-08T10:37:57.324Z,96585.78
2023-05-08T10:40:25.928Z,96588.10
2023-05-08T10:42:54.514Z,96593.33
2023-05-08T10:45:24.391Z,96594.16
2023-05-08T10:48:13.993Z,96594.34
2023-05-08T10:51:08.401Z,96599.04
2023-05-08T10:54:24.898Z,96601.43
2023-05-08T10:57:08.610Z,96599.91
2023-05-08T10:59:40.199Z,96603.45
2023-05-08T11:02:08.879Z,96609.09
2023-05-08T11:04:38.461Z,96611.11
2023-05-08T11:07:07.135Z,96611.86
2023-05-08T11:10:06.661Z,96607.46
2023-05-08T11:12:38.117Z,96606.46
2023-05-08T11:15:07.567Z,96604.09
2023-05-08T11:17:36.003Z,96604.62
2023-05-08T11:20:07.083Z,96605.07
2023-05-08T11:22:37.042Z,96604.27
2023-05-08T11:25:11.068Z,96601.23
2023-05-08T11:28:00.929Z,96607.55
2023-05-08T11:30:37.310Z,96611.86
2023-05-08T11:33:05.894Z,96621.44
2023-05-08T11:35:48.286Z,96616.75
2023-05-08T11:38:28.431Z,96617.75
2023-05-08T11:41:01.109Z,96617.37
2023-05-08T11:43:41.692Z,96630.28
2023-05-08T11:46:15.900Z,96632.51
2023-05-08T11:48:44.525Z,96632.80
2023-05-08T11:51:13.852Z,96640.06
2023-05-08T11:53:44.211Z,96640.59
2023-05-08T11:56:12.776Z,96636.73
2023-05-08T11:58:41.219Z,96644.35
2023-05-08T12:01:09.579Z,96643.35
2023-05-08T12:03:38.294Z,96644.51
2023-05-08T12:06:07.186Z,96645.16
2023-05-08T12:08:39.538Z,96648.70
2023-05-08T12:11:08.130Z,96648.02
2023-05-08T12:13:36.532Z,96650.09
2023-05-08T12:16:05.091Z,96649.95
2023-05-08T12:18:33.508Z,96645.98
2023-05-08T12:21:01.990Z,96646.29
2023-05-08T12:23:30.492Z,96646.86
2023-05-08T12:26:00.555Z,96649.39
2023-05-08T12:28:32.527Z,96649.27
2023-05-08T12:31:04.565Z,96645.69
2023-05-08T12:33:34.278Z,96644.05
2023-05-08T12:36:03.117Z,96642.55
2023-05-08T12:38:31.539Z,96648.98
2023-05-08T12:41:04.519Z,96649.66
2023-05-08T12:43:37.360Z,96648.94
2023-05-08T12:46:06.011Z,96647.81
2023-05-08T12:48:34.431Z,96646.09
2023-05-08T12:51:05.446Z,96646.67
2023-05-08T12:53:33.826Z,96648.46
2023-05-08T12:56:04.358Z,96645.64
2023-05-08T12:58:35.083Z,96644.95
2023-05-08T13:01:10.323Z,96644.98
2023-05-08T13:03:39.708Z,96649.08
2023-05-08T13:06:20.131Z,96647.75
2023-05-08T13:08:54.334Z,96649.67
2023-05-08T13:11:33.526Z,96647.70
2023-05-08T13:14:02.081Z,96650.76
2023-05-08T13:16:30.520Z,96652.34
2023-05-08T13:18:58.988Z,96656.56
2023-05-08T13:21:28.071Z,96662.63
2023-05-08T13:23:57.038Z,96665.83
2023-05-08T13:26:26.445Z,96667.80
2023-05-08T13:28:56.486Z,96668.10
2023-05-08T13:31:25.168Z,96672.84
2023-05-08T13:33:53.540Z,96673.41
2023-05-08T13:36:22.206Z,96678.53
2023-05-08T13:38:54.387Z,96681.81
2023-05-08T13:41:23.321Z,96684.23
2023-05-08T13:43:51.681Z,96682.88
2023-05-08T13:46:21.115Z,96680.68
2023-05-08T13:48:49.513Z,96680.28
2023-05-08T13:51:17.813Z,96682.32
2023-05-08T13:53:46.157Z,96678.64
2023-05-08T13:56:14.661Z,96680.45
2023-05-08T13:58:43.685Z,96679.59
2023-05-08T14:01:25.813Z,96681.40
2023-05-08T14:03:55.805Z,96677.33
2023-05-08T14:06:24.358Z,96684.15
2023-05-08T14:08:54.588Z,96682.04
2023-05-08T14:11:25.668Z,96690.48
2023-05-08T14:13:54.099Z,96690.23
2023-05-08T14:16:22.545Z,96692.77
2023-05-08T14:18:50.930Z,96692.95
2023-05-08T14:21:19.327Z,96696.73
2023-05-08T14:23:47.745Z,96695.26
2023-05-08T14:26:16.157Z,96694.54
2023-05-08T14:28:44.504Z,96701.65
2023-05-08T14:31:13.000Z,96700.35
2023-05-08T14:33:41.437Z,96700.63
2023-05-08T14:36:10.094Z,96702.83
2023-05-08T14:38:38.456Z,96704.89
2023-05-08T14:41:06.784Z,96710.29
2023-05-08T14:43:35.170Z,96709.20
2023-05-08T14:46:03.731Z,96715.50
2023-05-08T14:48:32.060Z,96717.67
2023-05-08T14:51:00.455Z,96718.34
2023-05-08T14:53:28.954Z,96728.83
2023-05-08T14:55:59.946Z,96728.80
2023-05-08T14:58:28.769Z,96731.58
2023-05-08T15:00:57.135Z,96735.99
2023-05-08T15:03:26.078Z,96739.27
2023-05-08T15:05:54.688Z,96743.04
2023-05-08T15:08:23.084Z,96742.78
2023-05-08T15:10:52.227Z,96747.38
2023-05-08T15:13:20.648Z,96745.42
2023-05-08T15:15:49.463Z,96751.88
2023-05-08T15:18:17.778Z,96753.52
2023-05-08T15:20:46.164Z,96753.19
2023-05-08T15:23:14.614Z,96761.67
2023-05-08T15:25:42.930Z,96765.28
2023-05-08T15:28:14.205Z,96761.25
2023-05-08T15:30:45.937Z,96761.75
2023-05-08T15:33:14.714Z,96765.31
2023-05-08T15:35:43.006Z,96766.39
2023-05-08T15:38:11.764Z,96766.27
2023-05-08T15:40:40.121Z,96761.77
2023-05-08T15:43:08.424Z,96762.59
2023-05-08T15:45:36.780Z,96765.98
2023-05-08T15:48:05.365Z,96767.95
2023-05-08T15:50:33.636Z,96765.93
2023-05-08T15:53:02.294Z,96772.88
2023-05-08T15:55:30.696Z,96773.89
2023-05-08T15:57:59.100Z,96774.44
2023-05-08T16:00:33.437Z,96774.29
2023-05-08T16:03:12.327Z,96769.17
2023-05-08T16:05:40.823Z,96770.77
2023-05-08T16:08:12.688Z,96776.96
2023-05-08T16:10:42.532Z,96785.39
2023-05-08T16:13:11.139Z,96786.73
2023-05-08T16:15:39.693Z,96791.05
2023-05-08T16:18:08.648Z,96794.23
2023-05-08T16:20:37.180Z,96794.36
2023-05-08T16:23:05.674Z,96799.39
2023-05-08T16:25:34.065Z,96797.40
2023-05-08T16:28:02.770Z,96801.48
2023-05-08T16:30:31.520Z,96800.41
2023-05-08T16:33:00.124Z,96806.72
2023-05-08T16:35:29.683Z,96808.82
2023-05-08T16:37:58.235Z,96807.54
2023-05-08T16:40:26.928Z,96806.69
2023-05-08T16:42:56.209Z,96809.51
2023-05-08T16:45:24.839Z,96807.65
2023-05-08T16:47:53.214Z,96809.81
2023-05-08T16:50:21.591Z,96810.51
2023-05-08T16:52:49.864Z,96816.32
2023-05-08T16:55:18.289Z,96816.89
2023-05-08T16:57:46.657Z,96816.75
2023-05-08T17:00:15.456Z,96819.42
2023-05-08T17:02:44.160Z,96825.54
2023-05-08T17:05:12.895Z,96830.46
2023-05-08T17:07:41.655Z,96831.89
2023-05-08T17:10:10.703Z,96833.70
2023-05-08T17:12:39.156Z,96831.52
2023-05-08T17:15:07.972Z,96835.41
2023-05-08T17:17:36.395Z,96837.21
2023-05-08T17:20:05.373Z,96842.80
2023-05-08T17:22:33.834Z,96846.40
2023-05-08T17:25:02.609Z,96852.77
2023-05-08T17:27:31.013Z,96861.31
2023-05-08T17:29:59.454Z,96863.20
2023-05-08T17:32:27.905Z,96871.50
2023-05-08T17:34:56.267Z,96878.18
2023-05-08T17:37:24.709Z,96882.24
2023-05-08T17:39:52.981Z,96890.36
2023-05-08T17:42:21.296Z,96893.25
2023-05-08T17:44:49.576Z,96896.42
2023-05-08T17:47:17.914Z,96902.98
2023-05-08T17:49:46.285Z,96908.11
2023-05-08T17:52:14.658Z,96914.87
2023-05-08T17:54:43.020Z,96919.74
2023-05-08T17:57:11.330Z,96922.14
2023-05-08T17:59:39.687Z,96926.30
2023-05-08T18:02:08.209Z,96926.28
2023-05-08T18:04:36.974Z,96930.01
2023-05-08T18:07:05.401Z,96927.80
2023-05-08T18:09:33.734Z,96931.09
2023-05-08T18:12:02.748Z,96934.08
2023-05-08T18:14:32.049Z,96939.94
2023-05-08T18:17:00.971Z,96943.43
2023-05-08T18:19:29.286Z,96951.89
2023-05-08T18:21:57.666Z,96958.48
2023-05-08T18:24:26.100Z,96960.21
2023-05-08T18:26:54.480Z,96964.16
2023-05-08T18:29:22.907Z,96969.14
2023-05-08T18:31:51.478Z,96968.48
2023-05-08T18:34:19.824Z,96973.61
2023-05-08T18:36:48.180Z,96977.11
2023-05-08T18:39:16.621Z,96975.16
2023-05-08T18:41:44.960Z,96980.73
2023-05-08T18:44:13.260Z,96985.58
2023-05-08T18:46:41.636Z,96986.93
2023-05-08T18:49:09.984Z,96993.36
2023-05-08T18:51:38.355Z,96997.11
2023-05-08T18:54:06.714Z,96995.29
2023-05-08T18:56:35.047Z,96999.56
2023-05-08T18:59:03.871Z,97000.04
2023-05-08T19:01:32.346Z,97003.42
2023-05-08T19:04:00.798Z,97003.77
2023-05-08T19:06:29.152Z,97002.60
2023-05-08T19:08:57.524Z,97001.36
2023-05-08T19:11:26.250Z,97005.77
2023-05-08T19:13:56.448Z,97005.88
2023-05-08T19:16:24.936Z,97005.05
2023-05-08T19:18:53.492Z,97006.68
2023-05-08T19:21:21.931Z,97005.77
2023-05-08T19:23:50.251Z,97005.80
2023-05-08T19:26:18.920Z,97009.25
2023-05-08T19:28:47.266Z,97015.23
2023-05-08T19:31:15.789Z,97017.02
2023-05-08T19:33:44.242Z,97014.74
2023-05-08T19:36:12.813Z,97018.88
2023-05-08T19:38:41.397Z,97018.76
2023-05-08T19:41:11.767Z,97021.80
2023-05-08T19:43:40.081Z,97022.33
2023-05-08T19:46:08.455Z,97025.01
2023-05-08T19:48:36.882Z,97027.56
2023-05-08T19:51:06.599Z,97025.66
2023-05-08T19:53:35.031Z,97023.21
2023-05-08T19:56:03.380Z,97020.46
2023-05-08T19:58:31.939Z,97021.02
2023-05-08T20:01:00.353Z,97020.01
2023-05-08T20:03:28.997Z,97022.22
2023-05-08T20:05:57.588Z,97024.35
2023-05-08T20:08:25.930Z,97023.97
2023-05-08T20:10:54.278Z,97027.04
2023-05-08T20:13:22.730Z,97025.28
2023-05-08T20:15:51.163Z,97024.91
2023-05-08T20:18:19.498Z,97024.77
2023-05-08T20:20:47.863Z,97026.24
2023-05-08T20:23:16.261Z,97030.81
2023-05-08T20:25:46.567Z,97030.31
2023-05-08T20:28:15.967Z,97026.68
2023-05-08T20:30:44.387Z,97028.13
2023-05-08T20:33:12.801Z,97032.61
2023-05-08T20:35:41.218Z,97038.64
2023-05-08T20:38:09.621Z,97039.41
2023-05-08T20:40:38.082Z,97040.40
2023-05-08T20:43:06.427Z,97040.25
2023-05-08T20:45:34.771Z,97039.46
2023-05-08T20:48:03.502Z,97044.70
2023-05-08T20:50:32.063Z,97046.81
2023-05-08T20:53:00.588Z,97046.60
2023-05-08T20:55:28.915Z,97047.33
2023-05-08T20:57:59.433Z,97046.79
2023-05-08T21:00:27.842Z,97047.52
2023-05-08T21:02:56.288Z,97051.97
2023-05-08T21:05:24.717Z,97054.35
2023-05-08T21:07:58.609Z,97049.69
2023-05-08T21:10:29.224Z,97051.86
2023-05-08T21:12:57.645Z,97053.94
2023-05-08T21:15:26.000Z,97052.92
2023-05-08T21:17:54.589Z,97052.92
2023-05-08T21:20:23.512Z,97053.44
2023-05-08T21:22:51.877Z,97053.79
2023-05-08T21:25:21.396Z,97055.29
2023-05-08T21:27:49.931Z,97053.73
2023-05-08T21:30:18.357Z,97056.31
2023-05-08T21:32:46.820Z,97059.14
2023-05-08T21:35:15.762Z,97062.25
2023-05-08T21:37:44.444Z,97062.92
2023-05-08T21:40:12.875Z,97065.55
2023-05-08T21:42:41.380Z,97062.27
2023-05-08T21:45:10.265Z,97064.46
2023-05-08T21:47:38.590Z,97064.36
2023-05-08T21:50:07.690Z,97066.61
2023-05-08T21:52:36.133Z,97071.30
2023-05-08T21:55:08.706Z,97068.05
2023-05-08T21:57:37.407Z,97071.47
2023-05-08T22:00:08.094Z,97071.27
2023-05-08T22:02:36.472Z,97072.73
2023-05-08T22:05:05.220Z,97064.95
2023-05-08T22:07:33.766Z,97065.02
2023-05-08T22:10:02.144Z,97065.28
2023-05-08T22:12:30.483Z,97066.70
2023-05-08T22:14:58.845Z,97068.02
2023-05-08T22:17:27.275Z,97068.75
2023-05-08T22:19:55.673Z,97069.35
2023-05-08T22:22:24.035Z,97067.94
2023-05-08T22:24:52.414Z,97065.91
2023-05-08T22:27:20.809Z,97063.38
2023-05-08T22:29:49.124Z,97061.36
2023-05-08T22:32:18.187Z,97063.77
2023-05-08T22:34:50.002Z,97063.96
2023-05-08T22:37:18.524Z,97060.28
2023-05-08T22:39:46.792Z,97060.25
2023-05-08T22:42:16.131Z,97062.15
2023-05-08T22:44:45.496Z,97062.30
2023-05-08T22:47:14.293Z,97066.34
2023-05-08T22:49:42.668Z,97065.98
2023-05-08T22:52:11.043Z,97067.35
2023-05-08T22:54:39.548Z,97063.80
2023-05-08T22:57:08.842Z,97063.45
2023-05-08T22:59:37.385Z,97065.08
2023-05-08T23:02:05.768Z,97062.33
2023-05-08T23:04:34.132Z,97067.84
2023-05-08T23:07:02.928Z,97066.36
2023-05-08T23:09:31.292Z,97061.85
2023-05-08T23:11:59.572Z,97058.40
2023-05-08T23:14:27.927Z,97056.58
2023-05-08T23:16:56.323Z,97057.02
2023-05-08T23:19:24.755Z,97057.41
2023-05-08T23:21:53.024Z,97057.05
2023-05-08T23:24:21.335Z,97056.63
2023-05-08T23:26:49.916Z,97059.62
2023-05-08T23:29:18.247Z,97054.83
2023-05-08T23:31:46.598Z,97055.21
2023-05-08T23:34:14.979Z,97051.46
2023-05-08T23:36:43.285Z,97051.68
2023-05-08T23:39:11.581Z,97050.14
2023-05-08T23:41:39.874Z,97049.49
2023-05-08T23:44:08.170Z,97052.30
2023-05-08T23:46:36.530Z,97052.82
2023-05-08T23:49:05.634Z,97053.05
2023-05-08T23:51:34.298Z,97054.46
2023-05-08T23:54:03.452Z,97053.38
2023-05-08T23:56:31.821Z,97050.98
2023-05-08T23:59:00.082Z,97047.21
